createdAt,value
2022-11-24T00:01:25.051Z,3.40
2022-11-24T00:03:55.652Z,3.70
2022-11-24T00:06:23.610Z,3.50
2022-11-24T00:08:50.898Z,3.40
2022-11-24T00:11:24.120Z,4.10
2022-11-24T00:13:51.075Z,4.50
2022-11-24T00:16:21.782Z,3.60
2022-11-24T00:18:50.998Z,4.30
2022-11-24T00:21:19.646Z,4.20
2022-11-24T00:23:47.973Z,5.90
2022-11-24T00:26:21.043Z,4.80
2022-11-24T00:28:50.574Z,4.80
2022-11-24T00:31:24.424Z,4.90
2022-11-24T00:33:54.320Z,5.00
2022-11-24T00:36:23.665Z,4.80
2022-11-24T00:38:55.308Z,4.50
2022-11-24T00:41:23.572Z,4.30
2022-11-24T00:43:51.292Z,4.30
2022-11-24T00:46:18.943Z,3.30
2022-11-24T00:48:46.205Z,4.70
2022-11-24T00:51:15.223Z,3.50
2022-11-24T00:53:42.439Z,4.80
2022-11-24T00:56:10.589Z,4.10
2022-11-24T00:58:38.095Z,6.00
2022-11-24T01:01:23.843Z,3.40
2022-11-24T01:03:51.365Z,3.00
2022-11-24T01:06:22.290Z,3.60
2022-11-24T01:08:49.798Z,2.60
2022-11-24T01:11:23.027Z,2.40
2022-11-24T01:13:54.500Z,2.20
2022-11-24T01:16:25.567Z,2.00
2022-11-24T01:18:53.019Z,2.00
2022-11-24T01:21:20.704Z,1.90
2022-11-24T01:23:47.895Z,2.40
2022-11-24T01:26:19.224Z,1.90
2022-11-24T01:31:15.584Z,1.70
2022-11-24T01:33:42.442Z,2.10
2022-11-24T01:36:09.325Z,1.60
2022-11-24T01:38:36.068Z,1.80
2022-11-24T01:41:12.345Z,1.50
2022-11-24T01:43:40.463Z,1.40
2022-11-24T01:46:30.502Z,1.60
2022-11-24T01:49:27.387Z,1.50
2022-11-24T01:52:18.818Z,1.60
2022-11-24T01:54:53.243Z,2.50
2022-11-24T01:57:26.216Z,1.30
2022-11-24T02:00:07.914Z,2.30
2022-11-24T02:02:35.575Z,1.50
2022-11-24T02:05:16.934Z,1.50
2022-11-24T02:07:44.702Z,2.30
2022-11-24T02:10:16.978Z,2.40
2022-11-24T02:12:47.279Z,1.90
2022-11-24T02:15:15.308Z,1.20
2022-11-24T02:17:41.993Z,1.70
2022-11-24T02:20:11.032Z,1.40
2022-11-24T02:23:04.815Z,1.20
2022-11-24T02:25:39.795Z,1.40
2022-11-24T02:28:12.906Z,1.10
2022-11-24T02:30:39.736Z,1.20
2022-11-24T02:33:06.466Z,1.40
2022-11-24T02:35:33.460Z,1.50
2022-11-24T02:38:00.132Z,1.90
2022-11-24T02:40:30.288Z,1.30
2022-11-24T02:43:05.011Z,1.70
2022-11-24T02:45:31.767Z,1.80
2022-11-24T02:47:58.571Z,1.40
2022-11-24T02:50:25.528Z,1.70
2022-11-24T02:52:52.359Z,1.40
2022-11-24T02:55:19.667Z,1.90
2022-11-24T02:57:46.723Z,2.10
2022-11-24T03:00:14.255Z,2.10
2022-11-24T03:02:41.136Z,2.00
2022-11-24T03:05:08.414Z,2.00
2022-11-24T03:07:35.151Z,1.50
2022-11-24T03:10:01.915Z,2.00
2022-11-24T03:12:28.605Z,1.60
2022-11-24T03:14:55.295Z,2.00
2022-11-24T03:17:22.045Z,2.10
2022-11-24T03:19:48.812Z,1.70
2022-11-24T03:22:15.513Z,1.80
2022-11-24T03:24:42.188Z,1.90
2022-11-24T03:27:08.872Z,2.40
2022-11-24T03:29:35.569Z,2.00
2022-11-24T03:32:02.312Z,2.10
2022-11-24T03:34:29.062Z,2.30
2022-11-24T03:36:55.841Z,1.80
2022-11-24T03:39:22.595Z,2.10
2022-11-24T03:41:50.800Z,2.30
2022-11-24T03:44:18.011Z,2.30
2022-11-24T03:46:45.117Z,2.50
2022-11-24T03:49:11.916Z,1.90
2022-11-24T03:51:38.737Z,2.00
2022-11-24T03:54:06.129Z,2.20
2022-11-24T03:56:32.936Z,1.70
2022-11-24T03:58:59.771Z,2.00
2022-11-24T04:01:26.504Z,2.00
2022-11-24T04:03:53.251Z,2.60
2022-11-24T04:06:19.939Z,2.00
2022-11-24T04:08:46.735Z,2.00
2022-11-24T04:11:33.486Z,2.00
2022-11-24T04:14:00.211Z,2.00
2022-11-24T04:16:27.078Z,2.20
2022-11-24T04:18:53.965Z,2.40
2022-11-24T04:21:20.806Z,1.70
2022-11-24T04:23:47.496Z,2.20
2022-11-24T04:26:14.467Z,2.70
2022-11-24T04:28:41.169Z,1.80
2022-11-24T04:31:08.184Z,2.40
2022-11-24T04:33:34.982Z,2.60
2022-11-24T04:36:01.766Z,2.30
2022-11-24T04:39:26.037Z,2.50
2022-11-24T04:41:15.080Z,2.40
2022-11-24T04:43:41.855Z,1.70
2022-11-24T04:46:11.143Z,1.60
2022-11-24T04:48:37.962Z,1.80
2022-11-24T04:51:06.060Z,2.00
2022-11-24T04:53:32.894Z,2.60
2022-11-24T04:56:04.894Z,2.30
2022-11-24T04:58:32.256Z,1.90
2022-11-24T05:00:58.911Z,2.20
2022-11-24T05:03:25.658Z,2.00
2022-11-24T05:05:52.279Z,2.00
2022-11-24T05:08:18.939Z,3.40
2022-11-24T05:10:45.589Z,2.20
2022-11-24T05:13:13.092Z,1.60
2022-11-24T05:15:41.503Z,1.80
2022-11-24T05:18:12.696Z,2.10
2022-11-24T05:20:39.382Z,2.40
2022-11-24T05:23:07.766Z,2.90
2022-11-24T05:25:35.071Z,2.20
2022-11-24T05:28:04.622Z,3.20
2022-11-24T05:30:32.038Z,2.20
2022-11-24T05:32:58.790Z,2.00
2022-11-24T05:35:25.603Z,2.60
2022-11-24T05:37:52.206Z,2.40
2022-11-24T05:40:19.077Z,2.50
2022-11-24T05:42:48.139Z,2.10
2022-11-24T05:45:20.754Z,3.00
2022-11-24T05:47:49.041Z,3.80
2022-11-24T05:50:18.221Z,3.30
2022-11-24T05:52:45.070Z,2.40
2022-11-24T05:55:14.466Z,2.30
2022-11-24T05:57:42.228Z,3.50
2022-11-24T06:00:10.313Z,2.40
2022-11-24T06:02:37.363Z,3.20
2022-11-24T06:05:04.733Z,2.80
2022-11-24T06:07:31.453Z,2.30
2022-11-24T06:09:58.088Z,2.70
2022-11-24T06:12:24.794Z,2.60
2022-11-24T06:14:51.621Z,2.20
2022-11-24T06:17:18.285Z,2.10
2022-11-24T06:19:47.290Z,1.90
2022-11-24T06:22:14.403Z,2.80
2022-11-24T06:24:41.300Z,1.70
2022-11-24T06:27:08.033Z,2.30
2022-11-24T06:29:34.676Z,2.50
2022-11-24T06:32:01.351Z,2.00
2022-11-24T06:34:28.272Z,2.70
2022-11-24T06:36:54.915Z,1.90
2022-11-24T06:39:21.550Z,2.10
2022-11-24T06:41:52.024Z,2.90
2022-11-24T06:44:19.101Z,3.10
2022-11-24T06:46:45.762Z,3.70
2022-11-24T06:49:12.376Z,3.70
2022-11-24T06:51:39.438Z,2.70
2022-11-24T06:54:06.993Z,3.00
2022-11-24T06:56:33.864Z,2.80
2022-11-24T06:59:01.599Z,3.20
2022-11-24T07:01:29.831Z,2.70
2022-11-24T07:03:57.218Z,2.80
2022-11-24T07:06:26.222Z,2.40
2022-11-24T07:08:52.938Z,2.50
2022-11-24T07:11:23.138Z,2.60
2022-11-24T07:13:56.514Z,2.70
2022-11-24T07:16:27.477Z,3.50
2022-11-24T07:18:55.321Z,2.60
2022-11-24T07:21:24.398Z,2.30
2022-11-24T07:23:53.220Z,2.70
2022-11-24T07:26:21.605Z,2.70
2022-11-24T07:28:49.123Z,2.80
2022-11-24T07:31:19.270Z,2.50
2022-11-24T07:33:51.317Z,3.90
2022-11-24T07:36:18.553Z,2.60
2022-11-24T07:38:45.898Z,3.20
2022-11-24T07:41:14.718Z,2.80
2022-11-24T07:43:41.681Z,3.30
2022-11-24T07:46:13.656Z,4.10
2022-11-24T07:48:40.640Z,4.10
2022-11-24T07:51:07.424Z,3.90
2022-11-24T07:53:35.065Z,3.20
2022-11-24T07:56:03.522Z,2.90
2022-11-24T07:58:34.227Z,3.20
2022-11-24T08:01:10.733Z,3.00
2022-11-24T08:03:37.666Z,3.10
2022-11-24T08:08:51.300Z,3.90
2022-11-24T08:11:18.355Z,4.10
2022-11-24T08:13:45.361Z,4.30
2022-11-24T08:16:16.153Z,4.30
2022-11-24T08:18:44.030Z,4.30
2022-11-24T08:21:13.930Z,4.40
2022-11-24T08:23:41.433Z,5.60
2022-11-24T08:26:16.877Z,3.80
2022-11-24T08:28:45.574Z,3.50
2022-11-24T08:31:16.439Z,4.60
2022-11-24T08:33:43.226Z,4.10
2022-11-24T08:36:13.037Z,4.90
2022-11-24T08:38:39.920Z,4.20
2022-11-24T08:41:10.442Z,4.90
2022-11-24T08:43:37.282Z,3.30
2022-11-24T08:46:08.114Z,3.80
2022-11-24T08:48:35.829Z,4.60
2022-11-24T08:51:12.144Z,6.10
2022-11-24T08:53:40.187Z,4.80
2022-11-24T08:56:08.777Z,4.20
2022-11-24T08:58:36.823Z,3.30
2022-11-24T09:01:06.523Z,3.70
2022-11-24T09:03:34.237Z,4.20
2022-11-24T09:06:01.722Z,4.60
2022-11-24T09:08:30.157Z,4.50
2022-11-24T09:11:05.218Z,4.40
2022-11-24T09:13:32.562Z,3.50
2022-11-24T09:16:05.995Z,3.80
2022-11-24T09:18:33.595Z,4.00
2022-11-24T09:21:13.710Z,3.70
2022-11-24T09:23:41.577Z,3.60
2022-11-24T09:26:16.342Z,4.60
2022-11-24T09:28:43.586Z,4.60
2022-11-24T09:31:14.984Z,3.40
2022-11-24T09:33:42.893Z,4.90
2022-11-24T09:36:10.578Z,3.30
2022-11-24T09:38:37.643Z,3.80
2022-11-24T09:41:53.789Z,3.40
2022-11-24T09:45:01.680Z,3.80
2022-11-24T09:47:59.061Z,3.30
2022-11-24T09:50:32.753Z,2.90
2022-11-24T09:53:46.050Z,2.50
2022-11-24T09:56:25.894Z,3.90
2022-11-24T09:59:30.217Z,2.90
2022-11-24T10:01:56.931Z,3.50
2022-11-24T10:04:42.067Z,3.20
2022-11-24T10:07:22.534Z,2.60
2022-11-24T10:10:22.921Z,2.90
2022-11-24T10:13:26.282Z,2.70
2022-11-24T10:16:21.790Z,3.00
2022-11-24T10:19:13.794Z,3.60
2022-11-24T10:21:54.515Z,3.10
2022-11-24T10:24:31.730Z,2.80
2022-11-24T10:27:13.134Z,3.40
2022-11-24T10:29:41.657Z,2.90
2022-11-24T10:32:36.859Z,3.00
2022-11-24T10:35:22.446Z,2.70
2022-11-24T10:38:44.803Z,3.10
2022-11-24T10:41:34.369Z,3.10
2022-11-24T10:44:01.215Z,2.90
2022-11-24T10:46:28.571Z,2.80
2022-11-24T10:49:04.078Z,2.90
2022-11-24T10:51:30.879Z,2.90
2022-11-24T10:54:07.104Z,3.60
2022-11-24T10:56:42.495Z,3.30
2022-11-24T10:59:31.548Z,3.20
2022-11-24T11:01:59.149Z,3.20
2022-11-24T11:04:34.021Z,3.40
2022-11-24T11:07:14.867Z,3.10
2022-11-24T11:09:41.626Z,3.90
2022-11-24T11:12:42.631Z,4.30
2022-11-24T11:15:26.580Z,3.60
2022-11-24T11:17:58.376Z,3.90
2022-11-24T11:20:32.170Z,4.10
2022-11-24T11:23:13.042Z,3.50
2022-11-24T11:25:40.521Z,3.70
2022-11-24T11:28:30.861Z,4.30
2022-11-24T11:31:16.486Z,4.30
2022-11-24T11:34:03.282Z,3.70
2022-11-24T11:36:32.097Z,4.30
2022-11-24T11:38:59.338Z,4.10
2022-11-24T11:41:32.655Z,3.70
2022-11-24T11:44:38.129Z,4.10
2022-11-24T11:47:21.635Z,3.10
2022-11-24T11:49:49.171Z,4.30
2022-11-24T11:52:39.846Z,4.00
2022-11-24T11:55:22.541Z,3.80
2022-11-24T11:58:01.387Z,3.80
2022-11-24T12:00:34.993Z,4.10
2022-11-24T12:03:33.779Z,4.00
2022-11-24T12:06:24.945Z,3.20
2022-11-24T12:09:20.961Z,6.10
2022-11-24T12:12:19.093Z,4.00
2022-11-24T12:15:22.627Z,3.50
2022-11-24T12:17:57.919Z,3.70
2022-11-24T12:20:47.042Z,4.00
2022-11-24T12:23:52.725Z,4.30
2022-11-24T12:26:38.884Z,3.70
2022-11-24T12:29:36.532Z,2.90
2022-11-24T12:33:00.790Z,3.40
2022-11-24T12:35:45.878Z,3.30
2022-11-24T12:38:34.204Z,4.50
2022-11-24T12:44:29.759Z,3.40
2022-11-24T12:47:20.927Z,3.40
2022-11-24T12:50:09.450Z,3.80
2022-11-24T12:53:00.054Z,3.30
2022-11-24T12:55:29.584Z,3.70
2022-11-24T12:58:39.242Z,3.70
2022-11-24T13:01:17.889Z,3.20
2022-11-24T13:04:16.016Z,3.60
2022-11-24T13:06:56.734Z,3.90
2022-11-24T13:09:23.368Z,3.00
2022-11-24T13:11:52.665Z,5.00
2022-11-24T13:14:30.326Z,3.80
2022-11-24T13:17:28.129Z,3.20
2022-11-24T13:19:47.746Z,2.40
2022-11-24T13:22:23.338Z,2.80
2022-11-24T13:25:14.467Z,3.00
2022-11-24T13:27:44.709Z,3.00
2022-11-24T13:30:33.323Z,3.00
2022-11-24T13:33:16.425Z,3.20
2022-11-24T13:36:01.943Z,2.70
2022-11-24T13:38:53.367Z,3.20
2022-11-24T13:44:14.248Z,2.60
2022-11-24T13:47:07.396Z,3.10
2022-11-24T13:49:42.899Z,2.90
2022-11-24T13:52:57.402Z,2.80
2022-11-24T13:55:35.637Z,3.00
2022-11-24T13:58:26.654Z,3.10
2022-11-24T14:01:30.843Z,3.10
2022-11-24T14:04:29.993Z,2.60
2022-11-24T14:06:51.548Z,4.40
2022-11-24T14:09:41.520Z,3.20
2022-11-24T14:12:23.904Z,2.90
2022-11-24T14:14:56.162Z,3.60
2022-11-24T14:17:27.455Z,3.30
2022-11-24T14:22:31.387Z,2.70
2022-11-24T14:25:00.654Z,3.40
2022-11-24T14:27:31.844Z,2.60
2022-11-24T14:30:03.759Z,3.30
2022-11-24T14:32:30.425Z,3.30
2022-11-24T14:34:57.280Z,2.70
2022-11-24T14:37:24.190Z,3.60
2022-11-24T14:39:51.002Z,3.10
2022-11-24T14:42:20.807Z,3.80
2022-11-24T14:44:59.193Z,3.70
2022-11-24T14:47:52.326Z,3.30
2022-11-24T14:50:22.981Z,3.30
2022-11-24T14:52:58.151Z,3.30
2022-11-24T14:55:30.922Z,3.70
2022-11-24T14:57:59.921Z,3.50
2022-11-24T15:00:32.988Z,2.90
2022-11-24T15:02:59.863Z,3.40
2022-11-24T15:05:57.831Z,4.00
2022-11-24T15:08:28.141Z,4.10
2022-11-24T15:10:58.738Z,3.20
2022-11-24T15:13:25.737Z,3.20
2022-11-24T15:16:02.118Z,3.50
2022-11-24T15:18:41.876Z,2.90
2022-11-24T15:21:15.572Z,3.20
2022-11-24T15:24:13.535Z,3.60
2022-11-24T15:26:42.156Z,3.10
2022-11-24T15:29:10.854Z,2.90
2022-11-24T15:31:39.638Z,3.40
2022-11-24T15:34:08.679Z,3.60
2022-11-24T15:36:35.412Z,3.70
2022-11-24T15:39:02.211Z,3.80
2022-11-24T15:41:31.780Z,2.80
2022-11-24T15:43:58.935Z,3.60
2022-11-24T15:46:36.847Z,2.90
2022-11-24T15:49:04.854Z,3.00
2022-11-24T15:51:31.637Z,3.40
2022-11-24T15:54:01.143Z,3.20
2022-11-24T15:56:34.524Z,3.30
2022-11-24T15:59:02.475Z,4.20
2022-11-24T16:01:33.398Z,2.70
2022-11-24T16:04:01.314Z,3.70
2022-11-24T16:06:28.214Z,4.00
2022-11-24T16:08:55.361Z,4.00
2022-11-24T16:11:22.625Z,3.00
2022-11-24T16:13:52.845Z,3.80
2022-11-24T16:16:24.460Z,3.40
2022-11-24T16:18:51.814Z,3.70
2022-11-24T16:21:18.628Z,2.90
2022-11-24T16:23:45.849Z,3.10
2022-11-24T16:26:12.589Z,3.60
2022-11-24T16:28:39.953Z,3.20
2022-11-24T16:31:06.835Z,3.50
2022-11-24T16:33:33.564Z,3.30
2022-11-24T16:36:00.181Z,3.40
2022-11-24T16:38:26.884Z,3.40
2022-11-24T16:40:58.458Z,3.50
2022-11-24T16:43:27.931Z,3.30
2022-11-24T16:46:20.546Z,3.40
2022-11-24T16:48:50.435Z,3.10
2022-11-24T16:51:20.537Z,3.20
2022-11-24T16:53:48.418Z,3.00
2022-11-24T16:56:15.905Z,3.20
2022-11-24T16:58:42.793Z,2.90
2022-11-24T17:01:12.475Z,3.20
2022-11-24T17:03:40.157Z,3.20
2022-11-24T17:06:10.779Z,3.50
2022-11-24T17:08:39.642Z,4.20
2022-11-24T17:11:12.340Z,4.80
2022-11-24T17:13:39.821Z,3.30
2022-11-24T17:16:10.791Z,3.50
2022-11-24T17:18:38.295Z,3.40
2022-11-24T17:21:09.940Z,3.40
2022-11-24T17:23:37.383Z,3.70
2022-11-24T17:26:08.419Z,4.10
2022-11-24T17:28:35.667Z,4.80
2022-11-24T17:31:21.606Z,3.30
2022-11-24T17:33:49.978Z,3.80
2022-11-24T17:36:16.698Z,3.00
2022-11-24T17:38:43.959Z,3.30
2022-11-24T17:41:11.342Z,3.80
2022-11-24T17:43:38.008Z,3.10
2022-11-24T17:46:07.557Z,4.10
2022-11-24T17:48:35.915Z,3.60
2022-11-24T17:51:14.947Z,3.10
2022-11-24T17:53:44.737Z,3.10
2022-11-24T17:56:14.742Z,3.70
2022-11-24T17:58:43.371Z,4.10
2022-11-24T18:01:12.247Z,4.20
2022-11-24T18:03:40.011Z,4.20
2022-11-24T18:06:12.757Z,3.60
2022-11-24T18:08:45.167Z,3.60
2022-11-24T18:11:16.196Z,4.20
2022-11-24T18:14:01.074Z,3.80
2022-11-24T18:16:31.206Z,3.60
2022-11-24T18:19:11.662Z,3.70
2022-11-24T18:21:40.317Z,3.70
2022-11-24T18:24:09.245Z,3.60
2022-11-24T18:26:36.975Z,3.70
2022-11-24T18:29:04.292Z,4.40
2022-11-24T18:31:33.423Z,3.90
2022-11-24T18:34:01.416Z,4.00
2022-11-24T18:36:30.597Z,4.70
2022-11-24T18:39:06.189Z,3.90
2022-11-24T18:41:33.243Z,3.70
2022-11-24T18:44:07.060Z,4.40
2022-11-24T18:46:33.844Z,3.90
2022-11-24T18:49:00.535Z,3.80
2022-11-24T18:51:27.564Z,2.80
2022-11-24T18:53:54.894Z,3.30
2022-11-24T18:56:21.552Z,4.40
2022-11-24T18:58:53.053Z,4.50
2022-11-24T19:01:23.927Z,4.00
2022-11-24T19:03:54.997Z,4.40
2022-11-24T19:06:31.247Z,3.60
2022-11-24T19:09:05.071Z,3.80
2022-11-24T19:11:36.494Z,4.10
2022-11-24T19:14:06.840Z,3.60
2022-11-24T19:16:34.872Z,3.40
2022-11-24T19:19:02.319Z,4.40
2022-11-24T19:21:38.145Z,3.90
2022-11-24T19:24:09.212Z,3.40
2022-11-24T19:26:36.731Z,4.00
2022-11-24T19:29:05.120Z,4.20
2022-11-24T19:31:33.443Z,5.50
2022-11-24T19:34:02.137Z,4.00
2022-11-24T19:36:28.792Z,3.90
2022-11-24T19:38:57.012Z,3.90
2022-11-24T19:41:27.624Z,3.50
2022-11-24T19:43:55.034Z,3.80
2022-11-24T19:46:26.420Z,3.50
2022-11-24T19:51:25.735Z,4.00
2022-11-24T19:53:53.677Z,4.40
2022-11-24T19:56:23.527Z,3.80
2022-11-24T19:58:51.859Z,3.90
2022-11-24T20:01:23.891Z,3.50
2022-11-24T20:04:00.544Z,3.70
2022-11-24T20:06:39.777Z,3.40
2022-11-24T20:09:09.490Z,4.70
2022-11-24T20:11:37.098Z,3.30
2022-11-24T20:14:04.948Z,3.40
2022-11-24T20:16:33.868Z,3.90
2022-11-24T20:19:07.125Z,3.80
2022-11-24T20:21:35.905Z,3.30
2022-11-24T20:24:05.467Z,3.70
2022-11-24T20:26:37.383Z,4.30
2022-11-24T20:29:05.723Z,3.30
2022-11-24T20:31:36.066Z,3.90
2022-11-24T20:34:05.933Z,3.60
2022-11-24T20:36:36.120Z,3.60
2022-11-24T20:39:09.351Z,3.80
2022-11-24T20:41:38.899Z,3.60
2022-11-24T20:44:12.436Z,3.70
2022-11-24T20:46:41.662Z,3.60
2022-11-24T20:49:12.685Z,3.60
2022-11-24T20:51:43.140Z,4.20
2022-11-24T20:54:12.207Z,4.00
2022-11-24T20:56:42.390Z,3.80
2022-11-24T20:59:16.080Z,4.20
2022-11-24T21:01:45.458Z,3.80
2022-11-24T21:04:19.540Z,5.90
2022-11-24T21:06:47.068Z,4.40
2022-11-24T21:09:14.307Z,4.50
2022-11-24T21:11:41.710Z,4.00
2022-11-24T21:14:09.037Z,3.70
2022-11-24T21:16:38.701Z,3.60
2022-11-24T21:19:10.778Z,3.30
2022-11-24T21:21:40.372Z,3.10
2022-11-24T21:24:12.355Z,3.90
2022-11-24T21:26:40.025Z,4.10
2022-11-24T21:29:07.593Z,3.10
2022-11-24T21:31:36.505Z,4.70
2022-11-24T21:34:04.465Z,3.20
2022-11-24T21:36:34.921Z,3.40
2022-11-24T21:39:03.290Z,2.90
2022-11-24T21:41:32.810Z,3.30
2022-11-24T21:43:59.682Z,3.60
2022-11-24T21:46:28.851Z,3.30
2022-11-24T21:48:55.444Z,3.10
2022-11-24T21:51:22.262Z,3.50
2022-11-24T21:53:48.958Z,3.10
2022-11-24T21:56:20.747Z,3.50
2022-11-24T21:58:56.629Z,4.00
2022-11-24T22:01:27.383Z,3.30
2022-11-24T22:03:54.843Z,3.40
2022-11-24T22:06:21.885Z,3.20
2022-11-24T22:08:49.046Z,4.00
2022-11-24T22:11:22.334Z,3.60
2022-11-24T22:13:50.491Z,3.40
2022-11-24T22:16:20.651Z,2.90
2022-11-24T22:18:47.929Z,3.50
2022-11-24T22:21:19.032Z,4.10
2022-11-24T22:23:48.405Z,3.30
2022-11-24T22:26:20.981Z,3.00
2022-11-24T22:28:48.278Z,3.20
2022-11-24T22:31:24.469Z,3.60
2022-11-24T22:33:52.948Z,2.80
2022-11-24T22:36:23.743Z,2.80
2022-11-24T22:38:59.347Z,3.40
2022-11-24T22:41:26.021Z,3.00
2022-11-24T22:43:52.975Z,3.20
2022-11-24T22:46:25.755Z,3.10
2022-11-24T22:48:54.169Z,3.20
2022-11-24T22:51:29.001Z,3.80
2022-11-24T22:53:58.667Z,3.20
2022-11-24T22:56:27.403Z,3.30
2022-11-24T22:58:54.274Z,2.90
2022-11-24T23:01:26.203Z,3.50
2022-11-24T23:03:53.982Z,3.40
2022-11-24T23:06:28.399Z,3.10
2022-11-24T23:08:57.274Z,3.60
2022-11-24T23:11:34.805Z,3.60
2022-11-24T23:14:04.932Z,3.30
2022-11-24T23:16:32.177Z,3.10
2022-11-24T23:18:59.000Z,3.00
2022-11-24T23:21:29.116Z,3.60
2022-11-24T23:23:59.040Z,3.10
2022-11-24T23:26:29.552Z,3.40
2022-11-24T23:28:56.233Z,3.10
2022-11-24T23:31:29.765Z,3.20
2022-11-24T23:33:59.526Z,3.40
2022-11-24T23:36:28.233Z,3.60
2022-11-24T23:38:58.442Z,4.30
2022-11-24T23:41:31.909Z,4.20
2022-11-24T23:44:00.299Z,3.80
2022-11-24T23:46:28.076Z,3.40
2022-11-24T23:48:56.219Z,3.50
2022-11-24T23:51:26.433Z,2.80
2022-11-24T23:53:54.544Z,3.20
2022-11-24T23:56:28.213Z,3.20
2022-11-24T23:58:54.838Z,2.80
